PWSweather.com
Personal Weather Stations
Station Observations
METEORENI
Tielt, Witte Kave, TieltBE

Tielt, Witte KaveTieltBE

Lat: 50.9938727, Lon: 3.341134199999942

Elevation: 0

Station Type: Netatmo

www.meteoreni.be

High Low Average
Temperature 72.3°F22.4°C 50.2°F10.1°C 61.0°F16.1°C
Dew Point 47.5°F8.6°C 41.0°F5.0°C 44.7°F7.1°C
Winds 3.8 mph 6.1 kmh 0.7 mph 1.1 kmh 2.0 mph NE3.2 kmh NE
Wind Gusts 12.5 mph20.1 kmh 1.8 mph2.9 kmh 5.0 mph8.0 kmh
Humidity 84% 34% 60%
Pressure 30.38 in1028.8 mb 30.30 in1026.1 mb -
Precipitation 0.00 in0.0 mm - -
Hour Temp Dew Point Humidity Winds Wind Gusts Pressure Precip Precip Rate Daily Precip Total
12:05 AM 54.5°F12.5°C 44.8°F7.1°C 75% 0.7 mph NE1.1 kmh NE 1.8 mph2.9 kmh 30.31 in1026.4 mb 0.00 in0.0 mm 0.00 in0.0 mm 0.00 in0.0 mm
12:25 AM 54.1°F12.3°C 45.0°F7.2°C 76% 0.7 mph NE1.1 kmh NE 2.5 mph4.0 kmh 30.31 in1026.4 mb 0.00 in0.0 mm 0.00 in0.0 mm 0.00 in0.0 mm
12:46 AM 54.0°F12.2°C 45.1°F7.3°C 77% 0.7 mph NE1.1 kmh NE 3.1 mph5.0 kmh 30.31 in1026.4 mb 0.00 in0.0 mm 0.00 in0.0 mm 0.00 in0.0 mm
01:06 AM 53.8°F12.1°C 45.0°F7.2°C 77% 0.7 mph NE1.1 kmh NE 2.5 mph4.0 kmh 30.31 in1026.4 mb 0.00 in0.0 mm 0.00 in0.0 mm 0.00 in0.0 mm
01:26 AM 53.6°F12.0°C 45.1°F7.3°C 78% 1.8 mph NE2.9 kmh NE 3.1 mph5.0 kmh 30.31 in1026.4 mb 0.00 in0.0 mm 0.00 in0.0 mm 0.00 in0.0 mm
01:46 AM 53.6°F12.0°C 45.1°F7.3°C 78% 1.8 mph NE2.9 kmh NE 4.9 mph7.9 kmh 30.31 in1026.4 mb 0.00 in0.0 mm 0.00 in0.0 mm 0.00 in0.0 mm
02:07 AM 53.4°F11.9°C 45.3°F7.4°C 79% 1.8 mph NE2.9 kmh NE 3.8 mph6.1 kmh 30.30 in1026.1 mb 0.00 in0.0 mm 0.00 in0.0 mm 0.00 in0.0 mm
02:27 AM 53.2°F11.8°C 45.7°F7.6°C 80% 1.8 mph NE2.9 kmh NE 4.9 mph7.9 kmh 30.31 in1026.4 mb 0.00 in0.0 mm 0.00 in0.0 mm 0.00 in0.0 mm
02:47 AM 53.1°F11.7°C 45.5°F7.5°C 80% 1.8 mph NE2.9 kmh NE 3.8 mph6.1 kmh 30.31 in1026.4 mb 0.00 in0.0 mm 0.00 in0.0 mm 0.00 in0.0 mm
03:07 AM 52.5°F11.4°C 45.3°F7.4°C 81% 1.8 mph NE2.9 kmh NE 3.1 mph5.0 kmh 30.31 in1026.4 mb 0.00 in0.0 mm 0.00 in0.0 mm 0.00 in0.0 mm
03:28 AM 52.2°F11.2°C 45.0°F7.2°C 81% 0.7 mph NE1.1 kmh NE 3.1 mph5.0 kmh 30.31 in1026.4 mb 0.00 in0.0 mm 0.00 in0.0 mm 0.00 in0.0 mm
03:48 AM 51.8°F11.0°C 45.0°F7.2°C 82% 0.7 mph NE1.1 kmh NE 2.5 mph4.0 kmh 30.31 in1026.4 mb 0.00 in0.0 mm 0.00 in0.0 mm 0.00 in0.0 mm
04:08 AM 51.4°F10.8°C 44.6°F7.0°C 82% 0.7 mph NE1.1 kmh NE 3.1 mph5.0 kmh 30.30 in1026.1 mb 0.00 in0.0 mm 0.00 in0.0 mm 0.00 in0.0 mm
04:29 AM 51.1°F10.6°C 44.2°F6.8°C 82% 0.7 mph NNE1.1 kmh NNE 1.8 mph2.9 kmh 30.30 in1026.1 mb 0.00 in0.0 mm 0.00 in0.0 mm 0.00 in0.0 mm
04:48 AM 50.9°F10.5°C 44.4°F6.9°C 83% 0.7 mph NE1.1 kmh NE 3.1 mph5.0 kmh 30.30 in1026.1 mb 0.00 in0.0 mm 0.00 in0.0 mm 0.00 in0.0 mm
05:09 AM 50.7°F10.4°C 44.8°F7.1°C 84% 0.7 mph NE1.1 kmh NE 3.1 mph5.0 kmh 30.30 in1026.1 mb 0.00 in0.0 mm 0.00 in0.0 mm 0.00 in0.0 mm
05:29 AM 50.5°F10.3°C 44.6°F7.0°C 84% 0.7 mph NE1.1 kmh NE 3.1 mph5.0 kmh 30.30 in1026.1 mb 0.00 in0.0 mm 0.00 in0.0 mm 0.00 in0.0 mm
05:50 AM 50.4°F10.2°C 44.4°F6.9°C 84% 0.7 mph NE1.1 kmh NE 2.5 mph4.0 kmh 30.31 in1026.4 mb 0.00 in0.0 mm 0.00 in0.0 mm 0.00 in0.0 mm
06:09 AM 50.2°F10.1°C 44.2°F6.8°C 84% 0.7 mph NE1.1 kmh NE 2.5 mph4.0 kmh 30.31 in1026.4 mb 0.00 in0.0 mm 0.00 in0.0 mm 0.00 in0.0 mm
06:30 AM 50.4°F10.2°C 44.4°F6.9°C 84% 1.8 mph NE2.9 kmh NE 3.8 mph6.1 kmh 30.31 in1026.4 mb 0.00 in0.0 mm 0.00 in0.0 mm 0.00 in0.0 mm
06:40 AM 50.4°F10.2°C 44.4°F6.9°C 84% 1.8 mph NE2.9 kmh NE 3.8 mph6.1 kmh 30.31 in1026.4 mb 0.00 in0.0 mm 0.00 in0.0 mm 0.00 in0.0 mm
07:01 AM 50.5°F10.3°C 44.6°F7.0°C 84% 1.8 mph NE2.9 kmh NE 3.8 mph6.1 kmh 30.32 in1026.8 mb 0.00 in0.0 mm 0.00 in0.0 mm 0.00 in0.0 mm
07:20 AM 51.1°F10.6°C 45.0°F7.2°C 84% 1.8 mph NE2.9 kmh NE 3.8 mph6.1 kmh 30.32 in1026.8 mb 0.00 in0.0 mm 0.00 in0.0 mm 0.00 in0.0 mm
07:41 AM 51.6°F10.9°C 45.1°F7.3°C 83% 1.8 mph NNE2.9 kmh NNE 3.1 mph5.0 kmh 30.33 in1027.1 mb 0.00 in0.0 mm 0.00 in0.0 mm 0.00 in0.0 mm
08:01 AM 52.3°F11.3°C 45.5°F7.5°C 82% 1.8 mph NE2.9 kmh NE 3.8 mph6.1 kmh 30.33 in1027.1 mb 0.00 in0.0 mm 0.00 in0.0 mm 0.00 in0.0 mm
08:21 AM 53.4°F11.9°C 45.9°F7.7°C 80% 0.7 mph NE1.1 kmh NE 3.8 mph6.1 kmh 30.33 in1027.1 mb 0.00 in0.0 mm 0.00 in0.0 mm 0.00 in0.0 mm
08:41 AM 54.9°F12.7°C 45.7°F7.6°C 76% 2.5 mph E4.0 kmh E 6.3 mph10.1 kmh 30.33 in1027.1 mb 0.00 in0.0 mm 0.00 in0.0 mm 0.00 in0.0 mm
09:02 AM 55.9°F13.3°C 45.5°F7.5°C 73% 2.5 mph NE4.0 kmh NE 5.6 mph9.0 kmh 30.34 in1027.4 mb 0.00 in0.0 mm 0.00 in0.0 mm 0.00 in0.0 mm
09:22 AM 57.2°F14.0°C 45.9°F7.7°C 71% 2.5 mph ENE4.0 kmh ENE 4.9 mph7.9 kmh 30.34 in1027.4 mb 0.00 in0.0 mm 0.00 in0.0 mm 0.00 in0.0 mm
09:42 AM 58.3°F14.6°C 45.3°F7.4°C 67% 2.5 mph E4.0 kmh E 8.1 mph13.0 kmh 30.34 in1027.4 mb 0.00 in0.0 mm 0.00 in0.0 mm 0.00 in0.0 mm
10:03 AM 59.5°F15.3°C 45.7°F7.6°C 65% 1.8 mph ESE2.9 kmh ESE 4.9 mph7.9 kmh 30.34 in1027.4 mb 0.00 in0.0 mm 0.00 in0.0 mm 0.00 in0.0 mm
10:23 AM 61.0°F16.1°C 46.2°F7.9°C 63% 2.5 mph SE4.0 kmh SE 6.9 mph11.1 kmh 30.34 in1027.4 mb 0.00 in0.0 mm 0.00 in0.0 mm 0.00 in0.0 mm
10:43 AM 62.2°F16.8°C 45.5°F7.5°C 58% 3.1 mph NE5.0 kmh NE 6.9 mph11.1 kmh 30.34 in1027.4 mb 0.00 in0.0 mm 0.00 in0.0 mm 0.00 in0.0 mm
11:03 AM 63.1°F17.3°C 46.2°F7.9°C 58% 2.5 mph ESE4.0 kmh ESE 6.3 mph10.1 kmh 30.34 in1027.4 mb 0.00 in0.0 mm 0.00 in0.0 mm 0.00 in0.0 mm
11:24 AM 64.2°F17.9°C 46.9°F8.3°C 57% 2.5 mph ENE4.0 kmh ENE 8.1 mph13.0 kmh 30.33 in1027.1 mb 0.00 in0.0 mm 0.00 in0.0 mm 0.00 in0.0 mm
11:43 AM 65.3°F18.5°C 47.5°F8.6°C 56% 2.5 mph SE4.0 kmh SE 8.1 mph13.0 kmh 30.33 in1027.1 mb 0.00 in0.0 mm 0.00 in0.0 mm 0.00 in0.0 mm
12:04 PM 66.4°F19.1°C 46.0°F7.8°C 50% 2.5 mph SE4.0 kmh SE 6.3 mph10.1 kmh 30.32 in1026.8 mb 0.00 in0.0 mm 0.00 in0.0 mm 0.00 in0.0 mm
12:24 PM 67.6°F19.8°C 45.1°F7.3°C 45% 2.5 mph SE4.0 kmh SE 8.1 mph13.0 kmh 30.32 in1026.8 mb 0.00 in0.0 mm 0.00 in0.0 mm 0.00 in0.0 mm
12:45 PM 68.7°F20.4°C 44.8°F7.1°C 42% 3.1 mph SE5.0 kmh SE 9.4 mph15.1 kmh 30.32 in1026.8 mb 0.00 in0.0 mm 0.00 in0.0 mm 0.00 in0.0 mm
12:54 PM 69.1°F20.6°C 45.1°F7.3°C 42% 3.1 mph SE5.0 kmh SE 9.4 mph15.1 kmh 30.32 in1026.8 mb 0.00 in0.0 mm 0.00 in0.0 mm 0.00 in0.0 mm
01:05 PM 69.6°F20.9°C 45.7°F7.6°C 42% 3.8 mph SE6.1 kmh SE 9.4 mph15.1 kmh 30.32 in1026.8 mb 0.00 in0.0 mm 0.00 in0.0 mm 0.00 in0.0 mm
01:46 PM 70.5°F21.4°C 45.1°F7.3°C 39% 3.8 mph NE6.1 kmh NE 10.5 mph16.9 kmh 30.32 in1026.8 mb 0.00 in0.0 mm 0.00 in0.0 mm 0.00 in0.0 mm
02:05 PM 71.4°F21.9°C 45.5°F7.5°C 38% 3.1 mph SE5.0 kmh SE 12.5 mph20.1 kmh 30.32 in1026.8 mb 0.00 in0.0 mm 0.00 in0.0 mm 0.00 in0.0 mm
02:26 PM 71.6°F22.0°C 44.4°F6.9°C 35% 3.8 mph NE6.1 kmh NE 12.5 mph20.1 kmh 30.31 in1026.4 mb 0.00 in0.0 mm 0.00 in0.0 mm 0.00 in0.0 mm
02:46 PM 72.1°F22.3°C 45.3°F7.4°C 36% 2.5 mph E4.0 kmh E 6.3 mph10.1 kmh 30.31 in1026.4 mb 0.00 in0.0 mm 0.00 in0.0 mm 0.00 in0.0 mm
03:06 PM 72.3°F22.4°C 44.6°F7.0°C 34% 3.1 mph NE5.0 kmh NE 11.2 mph18.0 kmh 30.31 in1026.4 mb 0.00 in0.0 mm 0.00 in0.0 mm 0.00 in0.0 mm
03:26 PM 72.1°F22.3°C 45.0°F7.2°C 35% 3.1 mph NE5.0 kmh NE 6.9 mph11.1 kmh 30.31 in1026.4 mb 0.00 in0.0 mm 0.00 in0.0 mm 0.00 in0.0 mm
03:47 PM 72.3°F22.4°C 46.0°F7.8°C 37% 3.1 mph ENE5.0 kmh ENE 8.7 mph14.0 kmh 30.31 in1026.4 mb 0.00 in0.0 mm 0.00 in0.0 mm 0.00 in0.0 mm
04:07 PM 72.1°F22.3°C 45.3°F7.4°C 36% 3.1 mph NE5.0 kmh NE 6.9 mph11.1 kmh 30.31 in1026.4 mb 0.00 in0.0 mm 0.00 in0.0 mm 0.00 in0.0 mm
04:27 PM 72.3°F22.4°C 46.0°F7.8°C 37% 2.5 mph SE4.0 kmh SE 6.9 mph11.1 kmh 30.31 in1026.4 mb 0.00 in0.0 mm 0.00 in0.0 mm 0.00 in0.0 mm
04:48 PM 72.3°F22.4°C 46.0°F7.8°C 37% 3.1 mph NE5.0 kmh NE 9.4 mph15.1 kmh 30.31 in1026.4 mb 0.00 in0.0 mm 0.00 in0.0 mm 0.00 in0.0 mm
05:08 PM 72.0°F22.2°C 45.7°F7.6°C 37% 2.5 mph SE4.0 kmh SE 5.6 mph9.0 kmh 30.31 in1026.4 mb 0.00 in0.0 mm 0.00 in0.0 mm 0.00 in0.0 mm
05:28 PM 72.0°F22.2°C 46.0°F7.8°C 38% 3.1 mph SE5.0 kmh SE 5.6 mph9.0 kmh 30.32 in1026.8 mb 0.00 in0.0 mm 0.00 in0.0 mm 0.00 in0.0 mm
05:48 PM 71.6°F22.0°C 45.7°F7.6°C 38% 2.5 mph NE4.0 kmh NE 6.9 mph11.1 kmh 30.32 in1026.8 mb 0.00 in0.0 mm 0.00 in0.0 mm 0.00 in0.0 mm
06:09 PM 70.7°F21.5°C 45.7°F7.6°C 40% 2.5 mph NE4.0 kmh NE 5.6 mph9.0 kmh 30.32 in1026.8 mb 0.00 in0.0 mm 0.00 in0.0 mm 0.00 in0.0 mm
06:28 PM 69.6°F20.9°C 45.7°F7.6°C 42% 1.8 mph NE2.9 kmh NE 3.8 mph6.1 kmh 30.32 in1026.8 mb 0.00 in0.0 mm 0.00 in0.0 mm 0.00 in0.0 mm
06:49 PM 68.5°F20.3°C 44.6°F7.0°C 42% 1.8 mph NE2.9 kmh NE 4.9 mph7.9 kmh 30.33 in1027.1 mb 0.00 in0.0 mm 0.00 in0.0 mm 0.00 in0.0 mm
07:09 PM 67.6°F19.8°C 44.6°F7.0°C 44% 1.8 mph NE2.9 kmh NE 4.9 mph7.9 kmh 30.33 in1027.1 mb 0.00 in0.0 mm 0.00 in0.0 mm 0.00 in0.0 mm
07:30 PM 66.6°F19.2°C 43.7°F6.5°C 44% 0.7 mph NE1.1 kmh NE 3.1 mph5.0 kmh 30.33 in1027.1 mb 0.00 in0.0 mm 0.00 in0.0 mm 0.00 in0.0 mm
07:50 PM 65.7°F18.7°C 43.2°F6.2°C 45% 1.8 mph NE2.9 kmh NE 4.9 mph7.9 kmh 30.34 in1027.4 mb 0.00 in0.0 mm 0.00 in0.0 mm 0.00 in0.0 mm
08:00 PM 65.3°F18.5°C 43.0°F6.1°C 45% 1.8 mph NE2.9 kmh NE 3.8 mph6.1 kmh 30.34 in1027.4 mb 0.00 in0.0 mm 0.00 in0.0 mm 0.00 in0.0 mm
08:31 PM 64.6°F18.1°C 42.6°F5.9°C 46% 1.8 mph NE2.9 kmh NE 3.1 mph5.0 kmh 30.35 in1027.8 mb 0.00 in0.0 mm 0.00 in0.0 mm 0.00 in0.0 mm
08:41 PM 64.4°F18.0°C 42.4°F5.8°C 46% 1.8 mph NE2.9 kmh NE 3.1 mph5.0 kmh 30.35 in1027.8 mb 0.00 in0.0 mm 0.00 in0.0 mm 0.00 in0.0 mm
09:01 PM 64.0°F17.8°C 41.7°F5.4°C 45% 1.8 mph NE2.9 kmh NE 4.9 mph7.9 kmh 30.35 in1027.8 mb 0.00 in0.0 mm 0.00 in0.0 mm 0.00 in0.0 mm
09:21 PM 63.5°F17.5°C 42.1°F5.6°C 47% 2.5 mph NE4.0 kmh NE 6.9 mph11.1 kmh 30.36 in1028.1 mb 0.00 in0.0 mm 0.00 in0.0 mm 0.00 in0.0 mm
09:48 PM 62.6°F17.0°C 42.1°F5.6°C 49% 2.5 mph NNE4.0 kmh NNE 5.6 mph9.0 kmh 30.36 in1028.1 mb 0.00 in0.0 mm 0.00 in0.0 mm 0.00 in0.0 mm
10:08 PM 61.9°F16.6°C 42.3°F5.7°C 51% 2.5 mph NNE4.0 kmh NNE 6.9 mph11.1 kmh 30.36 in1028.1 mb 0.00 in0.0 mm 0.00 in0.0 mm 0.00 in0.0 mm
10:29 PM 61.5°F16.4°C 41.9°F5.5°C 51% 1.8 mph NE2.9 kmh NE 3.1 mph5.0 kmh 30.36 in1028.1 mb 0.00 in0.0 mm 0.00 in0.0 mm 0.00 in0.0 mm
10:49 PM 61.0°F16.1°C 41.7°F5.4°C 52% 2.5 mph NE4.0 kmh NE 6.3 mph10.1 kmh 30.37 in1028.4 mb 0.00 in0.0 mm 0.00 in0.0 mm 0.00 in0.0 mm
10:59 PM 60.6°F15.9°C 41.9°F5.5°C 53% 1.8 mph NE2.9 kmh NE 4.9 mph7.9 kmh 30.37 in1028.4 mb 0.00 in0.0 mm 0.00 in0.0 mm 0.00 in0.0 mm
11:28 PM 59.7°F15.4°C 41.4°F5.2°C 54% 1.8 mph NE2.9 kmh NE 4.9 mph7.9 kmh 30.38 in1028.8 mb 0.00 in0.0 mm 0.00 in0.0 mm 0.00 in0.0 mm
11:49 PM 59.2°F15.1°C 41.0°F5.0°C 54% 1.8 mph NE2.9 kmh NE 3.8 mph6.1 kmh 30.38 in1028.8 mb 0.00 in0.0 mm 0.00 in0.0 mm 0.00 in0.0 mm